createdAt,value
2019-04-14T00:00:01.055Z,5.2
2019-04-14T00:00:08.347Z,5.2
2019-04-14T00:00:16.400Z,5.19
2019-04-14T00:00:22.949Z,5.19
2019-04-14T00:00:31.478Z,5.18
2019-04-14T00:00:38.301Z,5.19
2019-04-14T00:00:45.447Z,5.18
2019-04-14T00:00:54.016Z,5.18
2019-04-14T00:01:00.394Z,5.18
2019-04-14T00:01:08.596Z,5.18
2019-04-14T00:01:15.786Z,5.17
2019-04-14T00:01:22.399Z,5.17
2019-04-14T00:01:29.060Z,5.17
2019-04-14T00:01:35.540Z,5.17
2019-04-14T00:01:43.301Z,5.16
2019-04-14T00:01:50.082Z,5.17
2019-04-14T00:01:57.330Z,5.16
2019-04-14T00:02:05.197Z,5.17
2019-04-14T00:02:11.710Z,5.17
2019-04-14T00:02:18.509Z,5.17
2019-04-14T00:02:25.029Z,5.15
2019-04-14T00:02:31.494Z,5.15
2019-04-14T00:02:38.988Z,5.15
2019-04-14T00:02:46.862Z,5.16
2019-04-14T00:02:54.052Z,5.15
2019-04-14T00:03:00.520Z,5.14
2019-04-14T00:03:07.352Z,5.16
2019-04-14T00:03:13.722Z,5.15
2019-04-14T00:03:20.089Z,5.15
2019-04-14T00:03:26.854Z,5.15
2019-04-14T00:03:33.241Z,5.15
2019-04-14T00:03:41.771Z,5.14
2019-04-14T00:03:48.385Z,5.14
2019-04-14T00:03:56.472Z,5.14
2019-04-14T00:04:03.027Z,5.14
2019-04-14T00:04:11.448Z,5.14
2019-04-14T00:04:18.909Z,5.14
2019-04-14T00:04:27.534Z,5.14
2019-04-14T00:04:35.510Z,5.13
2019-04-14T00:04:42.930Z,5.13
2019-04-14T00:04:49.446Z,5.12
2019-04-14T00:04:55.818Z,5.13
2019-04-14T00:05:03.879Z,5.13
2019-04-14T00:05:11.127Z,5.11
2019-04-14T00:05:18.744Z,5.12
2019-04-14T00:05:25.656Z,5.12
2019-04-14T00:05:38.604Z,5.11
2019-04-14T00:05:47.981Z,5.12
2019-04-14T00:05:56.534Z,5.11
2019-04-14T00:06:05.483Z,5.11
2019-04-14T00:06:13.600Z,5.11
2019-04-14T00:06:22.106Z,5.11
2019-04-14T00:06:29.396Z,5.11
2019-04-14T00:06:35.881Z,5.11
2019-04-14T00:06:44.009Z,5.11
2019-04-14T00:06:52.565Z,5.1
2019-04-14T00:07:01.522Z,5.1
2019-04-14T00:07:12.144Z,5.1
2019-04-14T00:07:19.476Z,5.1
2019-04-14T00:07:26.222Z,5.09
2019-04-14T00:07:34.033Z,5.1
2019-04-14T00:07:42.721Z,5.11
2019-04-14T00:07:51.617Z,5.09
2019-04-14T00:07:58.856Z,5.1
2019-04-14T00:08:08.758Z,5.1
2019-04-14T00:08:15.489Z,5.09
2019-04-14T00:08:24.039Z,5.09
2019-04-14T00:08:31.214Z,5.1
2019-04-14T00:08:37.958Z,5.09
2019-04-14T00:08:46.541Z,5.09
2019-04-14T00:08:55.098Z,5.09
2019-04-14T00:09:03.927Z,5.09
2019-04-14T00:09:10.374Z,5.08
2019-04-14T00:09:18.266Z,5.08
2019-04-14T00:09:27.172Z,5.09
2019-04-14T00:09:36.494Z,5.09
2019-04-14T00:09:45.214Z,5.09
2019-04-14T00:09:52.009Z,5.08
2019-04-14T00:09:59.255Z,5.08
2019-04-14T00:10:07.880Z,5.07
2019-04-14T00:10:16.796Z,5.08
2019-04-14T00:10:25.364Z,5.07
2019-04-14T00:10:31.901Z,5.07
2019-04-14T00:10:40.469Z,5.07
2019-04-14T00:10:49.344Z,5.07
2019-04-14T00:10:57.951Z,5.07
2019-04-14T00:11:06.060Z,5.07
2019-04-14T00:11:13.324Z,5.06
2019-04-14T00:11:21.148Z,5.07
2019-04-14T00:11:27.998Z,5.07
2019-04-14T00:11:34.396Z,5.06
2019-04-14T00:11:40.807Z,5.06
2019-04-14T00:11:47.999Z,5.06
2019-04-14T00:11:56.815Z,5.06
2019-04-14T00:12:12.067Z,5.06
2019-04-14T00:12:19.437Z,5.06
2019-04-14T00:12:28.066Z,5.06
2019-04-14T00:12:36.554Z,5.06
2019-04-14T00:12:45.566Z,5.05
2019-04-14T00:12:56.338Z,5.06
2019-04-14T00:13:04.506Z,5.05
2019-04-14T00:13:13.140Z,5.04
2019-04-14T00:13:20.291Z,5.06
2019-04-14T00:13:28.496Z,5.05
2019-04-14T00:13:37.089Z,5.05
2019-04-14T00:13:44.229Z,5.05
2019-04-14T00:13:53.127Z,5.04
2019-04-14T00:14:01.665Z,5.04
2019-04-14T00:14:09.569Z,5.05
2019-04-14T00:14:17.063Z,5.05
2019-04-14T00:14:27.908Z,5.04
2019-04-14T00:14:36.445Z,5.04
2019-04-14T00:14:45.401Z,5.03
2019-04-14T00:14:56.154Z,5.04
2019-04-14T00:15:04.362Z,5.03
2019-04-14T00:15:52.284Z,5.03
2019-04-14T00:16:01.612Z,5.03
2019-04-14T00:16:09.562Z,5.04
2019-04-14T00:16:17.047Z,5.04
2019-04-14T00:16:24.876Z,5.03
2019-04-14T00:16:31.941Z,5.04
2019-04-14T00:16:38.746Z,5.03
2019-04-14T00:16:45.334Z,5.03
2019-04-14T00:16:53.838Z,5.04
2019-04-14T00:17:02.088Z,5.03
2019-04-14T00:17:10.701Z,5.02
2019-04-14T00:17:17.960Z,5.03
2019-04-14T00:17:24.533Z,5.03
2019-04-14T00:17:31.340Z,5.03
2019-04-14T00:17:37.669Z,5.03
2019-04-14T00:17:45.623Z,5.03
2019-04-14T00:17:54.296Z,5.03
2019-04-14T00:18:01.758Z,5.03
2019-04-14T00:18:09.664Z,5.02
2019-04-14T00:18:16.431Z,5.03
2019-04-14T00:18:22.978Z,5.03
2019-04-14T00:18:29.403Z,5.02
2019-04-14T00:18:35.865Z,5.03
2019-04-14T00:18:43.330Z,5.02
2019-04-14T00:18:51.231Z,5.02
2019-04-14T00:18:58.408Z,5.03
2019-04-14T00:19:05.195Z,5.02
2019-04-14T00:19:11.583Z,5.02
2019-04-14T00:19:18.103Z,5.02
2019-04-14T00:19:26.157Z,5.01
2019-04-14T00:19:33.402Z,5.02
2019-04-14T00:19:39.884Z,5.02
2019-04-14T00:19:48.507Z,5.02
2019-04-14T00:19:56.646Z,5.01
2019-04-14T00:20:03.917Z,5
2019-04-14T00:20:11.850Z,5
2019-04-14T00:20:19.280Z,5
2019-04-14T00:20:25.736Z,4.99
2019-04-14T00:20:32.264Z,5
2019-04-14T00:20:38.991Z,4.99
2019-04-14T00:20:45.541Z,4.99
2019-04-14T00:20:51.966Z,4.99
2019-04-14T00:20:58.455Z,4.98
2019-04-14T00:21:06.484Z,4.97
2019-04-14T00:21:13.626Z,4.97
2019-04-14T00:21:21.512Z,4.98
2019-04-14T00:21:28.881Z,4.97
2019-04-14T00:21:35.357Z,4.97
2019-04-14T00:21:41.841Z,4.96
2019-04-14T00:21:50.026Z,4.96
2019-04-14T00:21:58.396Z,4.95
2019-04-14T00:22:07.208Z,4.95
2019-04-14T00:22:14.073Z,4.95
2019-04-14T00:22:20.525Z,4.95
2019-04-14T00:22:33.627Z,4.95
2019-04-14T00:22:40.957Z,4.95
2019-04-14T00:22:47.583Z,4.94
2019-04-14T00:22:56.171Z,4.94
2019-04-14T00:23:02.943Z,4.94
2019-04-14T00:23:10.783Z,4.94
2019-04-14T00:23:17.232Z,4.93
2019-04-14T00:23:23.715Z,4.94
2019-04-14T00:23:30.409Z,4.94
2019-04-14T00:23:36.948Z,4.94
2019-04-14T00:23:43.447Z,4.93
2019-04-14T00:23:50.906Z,4.93
2019-04-14T00:23:57.371Z,4.94
2019-04-14T00:24:05.931Z,4.93
2019-04-14T00:24:12.368Z,4.92
2019-04-14T00:24:19.184Z,4.93
2019-04-14T00:24:27.806Z,4.92
2019-04-14T00:24:34.310Z,4.93
2019-04-14T00:24:40.989Z,4.92
2019-04-14T00:24:49.632Z,4.92
2019-04-14T00:24:56.040Z,4.92
2019-04-14T00:25:04.104Z,4.92
2019-04-14T00:25:11.477Z,4.91
2019-04-14T00:25:20.135Z,4.91
2019-04-14T00:25:26.872Z,4.91
2019-04-14T00:25:33.333Z,4.91
2019-04-14T00:25:41.204Z,4.9
2019-04-14T00:25:47.643Z,4.91
2019-04-14T00:25:54.396Z,4.9
2019-04-14T00:26:00.802Z,4.9
2019-04-14T00:26:07.253Z,4.89
2019-04-14T00:26:14.022Z,4.89
2019-04-14T00:26:20.478Z,4.89
2019-04-14T00:26:29.124Z,4.89
2019-04-14T00:26:38.686Z,4.89
2019-04-14T00:26:47.388Z,4.88
2019-04-14T00:26:55.200Z,4.88
2019-04-14T00:27:02.010Z,4.88
2019-04-14T00:27:09.266Z,4.88
2019-04-14T00:27:15.729Z,4.88
2019-04-14T00:27:24.222Z,4.87
2019-04-14T00:27:31.004Z,4.87
2019-04-14T00:27:37.467Z,4.86
2019-04-14T00:27:43.962Z,4.87
2019-04-14T00:27:50.774Z,4.86
2019-04-14T00:27:57.174Z,4.87
2019-04-14T00:28:03.762Z,4.86
2019-04-14T00:28:10.240Z,4.87
2019-04-14T00:28:17.086Z,4.86
2019-04-14T00:28:23.617Z,4.87
2019-04-14T00:28:29.985Z,4.86
2019-04-14T00:28:36.494Z,4.86
2019-04-14T00:28:43.322Z,4.86
2019-04-14T00:28:49.811Z,4.86
2019-04-14T00:28:56.367Z,4.86
2019-04-14T00:29:06.678Z,4.86
2019-04-14T00:29:15.180Z,4.85
2019-04-14T00:29:21.722Z,4.84
2019-04-14T00:29:29.176Z,4.85
2019-04-14T00:29:37.044Z,4.83
2019-04-14T00:29:43.590Z,4.85
2019-04-14T00:29:50.290Z,4.83
2019-04-14T00:29:56.787Z,4.84
2019-04-14T00:30:05.377Z,4.84
2019-04-14T00:30:11.881Z,4.83
2019-04-14T00:30:18.753Z,4.84
2019-04-14T00:30:27.286Z,4.83
2019-04-14T00:30:34.442Z,4.83
2019-04-14T00:30:41.235Z,4.82
2019-04-14T00:30:47.748Z,4.83
2019-04-14T00:30:55.552Z,4.83
2019-04-14T00:31:02.318Z,4.82
2019-04-14T00:31:08.696Z,4.82
2019-04-14T00:31:15.187Z,4.81
2019-04-14T00:31:21.632Z,4.82
2019-04-14T00:31:28.534Z,4.82
2019-04-14T00:31:39.795Z,4.82
2019-04-14T00:31:47.369Z,4.82
2019-04-14T00:32:01.591Z,4.81
2019-04-14T00:32:11.602Z,4.81
2019-04-14T00:32:20.477Z,4.81
2019-04-14T00:32:27.628Z,4.81
2019-04-14T00:32:36.161Z,4.81
2019-04-14T00:32:42.903Z,4.81
2019-04-14T00:32:50.820Z,4.81
2019-04-14T00:33:00.202Z,4.8
2019-04-14T00:33:08.879Z,4.8
2019-04-14T00:33:17.703Z,4.8
2019-04-14T00:33:24.310Z,4.8
2019-04-14T00:33:30.913Z,4.8
2019-04-14T00:33:37.409Z,4.8
2019-04-14T00:33:43.978Z,4.78
2019-04-14T00:33:50.652Z,4.79
2019-04-14T00:33:58.559Z,4.79
2019-04-14T00:34:09.218Z,4.79
2019-04-14T00:34:15.926Z,4.77
2019-04-14T00:34:23.130Z,4.78
2019-04-14T00:34:31.616Z,4.76
2019-04-14T00:34:38.381Z,4.77
2019-04-14T00:34:46.266Z,4.77
2019-04-14T00:34:54.993Z,4.76
2019-04-14T00:35:02.387Z,4.77
2019-04-14T00:35:11.032Z,4.77
2019-04-14T00:35:19.481Z,4.77
2019-04-14T00:35:27.670Z,4.77
2019-04-14T00:35:34.956Z,4.77
2019-04-14T00:35:43.469Z,4.76
2019-04-14T00:35:51.559Z,4.76
2019-04-14T00:36:00.124Z,4.76
2019-04-14T00:36:08.705Z,4.76
2019-04-14T00:36:15.391Z,4.76
2019-04-14T00:36:22.588Z,4.77
2019-04-14T00:36:29.104Z,4.76
2019-04-14T00:36:35.544Z,4.76
2019-04-14T00:36:42.345Z,4.76
2019-04-14T00:36:50.920Z,4.76
2019-04-14T00:36:57.350Z,4.76
2019-04-14T00:37:05.997Z,4.76
2019-04-14T00:37:14.802Z,4.76
2019-04-14T00:37:22.722Z,4.76
2019-04-14T00:37:30.125Z,4.76
2019-04-14T00:37:38.749Z,4.76
2019-04-14T00:37:46.621Z,4.77
2019-04-14T00:37:53.356Z,4.76
2019-04-14T00:38:04.919Z,4.75
2019-04-14T00:38:11.330Z,4.75
2019-04-14T00:38:19.298Z,4.76
2019-04-14T00:38:27.992Z,4.75
2019-04-14T00:38:34.550Z,4.76
2019-04-14T00:38:41.947Z,4.75
2019-04-14T00:38:48.578Z,4.76
2019-04-14T00:38:57.010Z,4.76
2019-04-14T00:39:03.896Z,4.75
2019-04-14T00:39:10.329Z,4.76
2019-04-14T00:39:16.919Z,4.75
2019-04-14T00:39:24.943Z,4.76
2019-04-14T00:39:34.306Z,4.75
2019-04-14T00:39:42.189Z,4.76
2019-04-14T00:39:48.933Z,4.76
2019-04-14T00:39:56.001Z,4.76
2019-04-14T00:40:04.727Z,4.75
2019-04-14T00:40:11.262Z,4.75
2019-04-14T00:40:17.991Z,4.75
2019-04-14T00:40:31.496Z,4.75
2019-04-14T00:40:39.744Z,4.76
2019-04-14T00:40:46.170Z,4.76
2019-04-14T00:40:53.966Z,4.75
2019-04-14T00:41:00.683Z,4.75
2019-04-14T00:41:07.891Z,4.75
2019-04-14T00:41:15.893Z,4.75
2019-04-14T00:41:50.777Z,4.75
2019-04-14T00:42:10.877Z,4.74
2019-04-14T00:42:17.714Z,4.74
2019-04-14T00:42:24.186Z,4.74
2019-04-14T00:42:30.598Z,4.74
2019-04-14T00:42:37.220Z,4.73
2019-04-14T00:42:45.179Z,4.74
2019-04-14T00:42:51.576Z,4.73
2019-04-14T00:42:58.155Z,4.73
2019-04-14T00:43:04.906Z,4.74
2019-04-14T00:43:12.046Z,4.74
2019-04-14T00:43:18.517Z,4.74
2019-04-14T00:43:26.613Z,4.73
2019-04-14T00:43:33.762Z,4.73
2019-04-14T00:43:40.340Z,4.73
2019-04-14T00:43:46.782Z,4.73
2019-04-14T00:43:54.627Z,4.72
2019-04-14T00:44:01.750Z,4.72
2019-04-14T00:44:09.976Z,4.72
2019-04-14T00:44:16.748Z,4.72
2019-04-14T00:44:23.191Z,4.72
2019-04-14T00:44:30.364Z,4.72
2019-04-14T00:44:37.261Z,4.73
2019-04-14T00:44:45.230Z,4.72
2019-04-14T00:44:54.527Z,4.72
2019-04-14T00:45:01.200Z,4.72
2019-04-14T00:45:09.827Z,4.72
2019-04-14T00:45:16.219Z,4.72
2019-04-14T00:46:00.608Z,4.72
2019-04-14T00:46:10.709Z,4.72
2019-04-14T00:46:17.571Z,4.72
2019-04-14T00:46:25.426Z,4.72
2019-04-14T00:46:37.215Z,4.72
2019-04-14T00:46:45.236Z,4.73
2019-04-14T00:46:54.556Z,4.73
2019-04-14T00:47:01.362Z,4.73
2019-04-14T00:47:09.295Z,4.73
2019-04-14T00:47:17.826Z,4.73
2019-04-14T00:47:25.751Z,4.73
2019-04-14T00:47:33.898Z,4.74
2019-04-14T00:48:19.304Z,4.74
2019-04-14T00:48:30.550Z,4.74
2019-04-14T00:48:39.429Z,4.75
2019-04-14T00:48:48.087Z,4.75
2019-04-14T00:48:56.722Z,4.75
2019-04-14T00:49:04.858Z,4.75
2019-04-14T00:49:13.591Z,4.75
2019-04-14T00:49:22.143Z,4.75
2019-04-14T00:49:29.694Z,4.75
2019-04-14T00:49:36.176Z,4.75
2019-04-14T00:49:42.617Z,4.76
2019-04-14T00:49:50.756Z,4.75
2019-04-14T00:50:01.538Z,4.76
2019-04-14T00:50:10.783Z,4.76
2019-04-14T00:50:17.540Z,4.77
2019-04-14T00:50:24.015Z,4.78
2019-04-14T00:50:30.548Z,4.77
2019-04-14T00:50:37.347Z,4.78
2019-04-14T00:50:45.946Z,4.78
2019-04-14T00:50:54.622Z,4.78
2019-04-14T00:51:04.772Z,4.79
2019-04-14T00:51:14.088Z,4.79
2019-04-14T00:51:22.070Z,4.79
2019-04-14T00:51:29.157Z,4.8
2019-04-14T00:51:42.416Z,4.79
2019-04-14T00:51:52.694Z,4.8
2019-04-14T00:52:01.479Z,4.8
2019-04-14T00:52:10.737Z,4.8
2019-04-14T00:52:19.752Z,4.81
2019-04-14T00:52:29.664Z,4.81
2019-04-14T00:52:37.246Z,4.81
2019-04-14T00:52:43.689Z,4.82
2019-04-14T00:52:50.126Z,4.82
2019-04-14T00:52:57.339Z,4.83
2019-04-14T00:53:05.430Z,4.82
2019-04-14T00:53:12.059Z,4.82
2019-04-14T00:53:19.274Z,4.82
2019-04-14T00:53:29.188Z,4.82
2019-04-14T00:53:36.734Z,4.83
2019-04-14T00:53:43.173Z,4.82
2019-04-14T00:53:49.901Z,4.83
2019-04-14T00:53:59.927Z,4.82
2019-04-14T00:54:09.423Z,4.83
2019-04-14T00:54:17.285Z,4.83
2019-04-14T00:54:24.663Z,4.83
2019-04-14T00:54:32.448Z,4.84
2019-04-14T00:54:39.274Z,4.84
2019-04-14T00:54:46.423Z,4.84
2019-04-14T00:54:54.307Z,4.85
2019-04-14T00:55:00.961Z,4.84
2019-04-14T00:55:08.316Z,4.84
2019-04-14T00:55:16.054Z,4.84
2019-04-14T00:55:22.566Z,4.85
2019-04-14T00:55:29.247Z,4.84
2019-04-14T00:55:35.728Z,4.84
2019-04-14T00:55:42.954Z,4.85
2019-04-14T00:55:49.691Z,4.85
2019-04-14T00:55:57.586Z,4.86
2019-04-14T00:56:04.763Z,4.86
2019-04-14T00:56:12.843Z,4.85
2019-04-14T00:56:20.059Z,4.86
2019-04-14T00:56:26.634Z,4.86
2019-04-14T00:56:32.999Z,4.86
2019-04-14T00:56:39.756Z,4.87
2019-04-14T00:56:46.224Z,4.87
2019-04-14T00:56:52.683Z,4.87
2019-04-14T00:56:59.255Z,4.86
2019-04-14T00:57:07.298Z,4.87
2019-04-14T00:57:13.671Z,4.87
2019-04-14T00:57:20.823Z,4.87
2019-04-14T00:57:27.631Z,4.87
2019-04-14T00:57:34.071Z,4.87
2019-04-14T00:57:41.959Z,4.88
2019-04-14T00:57:48.647Z,4.88
2019-04-14T00:57:55.109Z,4.87
2019-04-14T00:58:01.600Z,4.88
2019-04-14T00:58:08.130Z,4.88
2019-04-14T00:58:15.560Z,4.89
2019-04-14T00:58:24.316Z,4.88
2019-04-14T00:58:32.189Z,4.89
2019-04-14T00:58:39.710Z,4.88
2019-04-14T00:58:46.087Z,4.89
2019-04-14T00:58:54.645Z,4.89
2019-04-14T00:59:02.781Z,4.88
2019-04-14T00:59:10.031Z,4.88
2019-04-14T00:59:16.456Z,4.88
2019-04-14T00:59:22.999Z,4.89
2019-04-14T00:59:29.779Z,4.88
2019-04-14T00:59:37.602Z,4.88
2019-04-14T00:59:44.044Z,4.88
2019-04-14T00:59:51.563Z,4.88
2019-04-14T00:59:59.493Z,4.88
2019-04-14T01:00:06.716Z,4.88
2019-04-14T01:00:20.685Z,4.88
2019-04-14T01:00:29.724Z,4.87
2019-04-14T01:00:37.193Z,4.88
2019-04-14T01:00:45.121Z,4.88
2019-04-14T01:00:55.746Z,4.87
2019-04-14T01:01:02.682Z,4.88
2019-04-14T01:01:11.894Z,4.88
2019-04-14T01:01:18.315Z,4.87
2019-04-14T01:01:25.030Z,4.87
2019-04-14T01:01:31.600Z,4.88
2019-04-14T01:01:37.985Z,4.87
2019-04-14T01:01:44.551Z,4.87
2019-04-14T01:01:51.242Z,4.88
2019-04-14T01:01:57.677Z,4.88
2019-04-14T01:02:05.625Z,4.87
2019-04-14T01:02:13.034Z,4.88
2019-04-14T01:02:19.672Z,4.87
2019-04-14T01:02:27.515Z,4.88
2019-04-14T01:02:34.753Z,4.88
2019-04-14T01:02:41.460Z,4.87
2019-04-14T01:02:47.925Z,4.88
2019-04-14T01:02:55.744Z,4.88
2019-04-14T01:03:02.538Z,4.87
2019-04-14T01:03:09.884Z,4.87
2019-04-14T01:03:16.273Z,4.87
2019-04-14T01:03:22.756Z,4.87
2019-04-14T01:03:29.482Z,4.88
2019-04-14T01:03:38.033Z,4.88
2019-04-14T01:03:44.496Z,4.88
2019-04-14T01:03:51.283Z,4.88
2019-04-14T01:03:57.745Z,4.88
2019-04-14T01:04:04.193Z,4.87
2019-04-14T01:04:10.542Z,4.88
2019-04-14T01:04:17.192Z,4.88
2019-04-14T01:04:23.706Z,4.88
2019-04-14T01:04:30.210Z,4.88
2019-04-14T01:04:36.829Z,4.87
2019-04-14T01:04:43.396Z,4.88
2019-04-14T01:04:51.308Z,4.88
2019-04-14T01:04:58.440Z,4.88
2019-04-14T01:05:06.585Z,4.88
2019-04-14T01:05:13.889Z,4.88
2019-04-14T01:05:20.272Z,4.89
2019-04-14T01:05:27.007Z,4.88
2019-04-14T01:05:41.413Z,4.89
2019-04-14T01:05:48.924Z,4.89
2019-04-14T01:05:57.597Z,4.88
2019-04-14T01:06:07.512Z,4.88
2019-04-14T01:06:16.381Z,4.88
2019-04-14T01:06:23.667Z,4.89
2019-04-14T01:06:31.447Z,4.89
2019-04-14T01:06:38.235Z,4.89
2019-04-14T01:06:46.816Z,4.9
2019-04-14T01:06:54.091Z,4.89
2019-04-14T01:07:01.974Z,4.89
2019-04-14T01:07:09.410Z,4.88
2019-04-14T01:07:18.013Z,4.89
2019-04-14T01:07:26.899Z,4.88
2019-04-14T01:07:35.566Z,4.88
2019-04-14T01:07:43.333Z,4.89
2019-04-14T01:07:50.793Z,4.89
2019-04-14T01:07:57.304Z,4.87
2019-04-14T01:08:07.252Z,4.89
2019-04-14T01:08:14.785Z,4.89
2019-04-14T01:08:23.894Z,4.88
2019-04-14T01:08:32.495Z,4.89
2019-04-14T01:08:41.015Z,4.88
2019-04-14T01:08:49.670Z,4.88
2019-04-14T01:08:58.298Z,4.88
2019-04-14T01:09:05.024Z,4.88
2019-04-14T01:09:11.496Z,4.87
2019-04-14T01:09:20.138Z,4.87
2019-04-14T01:09:26.873Z,4.87
2019-04-14T01:09:33.793Z,4.88
2019-04-14T01:09:41.688Z,4.87
2019-04-14T01:09:48.860Z,4.88
2019-04-14T01:09:57.515Z,4.87
2019-04-14T01:10:06.722Z,4.88
2019-04-14T01:10:13.453Z,4.88
2019-04-14T01:10:22.008Z,4.87
2019-04-14T01:10:30.739Z,4.87
2019-04-14T01:10:37.562Z,4.87
2019-04-14T01:10:44.046Z,4.87
2019-04-14T01:10:51.950Z,4.87
2019-04-14T01:11:00.882Z,4.87
2019-04-14T01:11:09.566Z,4.87
2019-04-14T01:11:16.729Z,4.87
2019-04-14T01:11:23.191Z,4.87
2019-04-14T01:11:29.906Z,4.87
2019-04-14T01:11:36.466Z,4.86
2019-04-14T01:11:42.854Z,4.87
2019-04-14T01:11:50.955Z,4.87
2019-04-14T01:11:59.490Z,4.86
2019-04-14T01:12:06.811Z,4.87
2019-04-14T01:12:15.486Z,4.86
2019-04-14T01:12:24.217Z,4.86
2019-04-14T01:12:32.807Z,4.86
2019-04-14T01:12:39.515Z,4.86
2019-04-14T01:12:47.428Z,4.86
2019-04-14T01:12:55.025Z,4.85
2019-04-14T01:13:03.469Z,4.85
2019-04-14T01:13:18.548Z,4.85
2019-04-14T01:13:27.474Z,4.86
2019-04-14T01:13:36.107Z,4.84
2019-04-14T01:13:43.982Z,4.85
2019-04-14T01:13:50.805Z,4.84
2019-04-14T01:13:59.374Z,4.85
2019-04-14T01:14:06.615Z,4.84
2019-04-14T01:14:13.363Z,4.84
2019-04-14T01:14:21.254Z,4.84
2019-04-14T01:14:29.782Z,4.85
2019-04-14T01:14:36.547Z,4.83
2019-04-14T01:14:43.109Z,4.83
2019-04-14T01:14:53.762Z,4.83
2019-04-14T01:15:00.713Z,4.83
2019-04-14T01:15:09.990Z,4.83
2019-04-14T01:15:18.590Z,4.83
2019-04-14T01:15:26.750Z,4.83
2019-04-14T01:16:03.352Z,4.83
2019-04-14T01:16:29.783Z,4.8
2019-04-14T01:16:37.177Z,4.81
2019-04-14T01:16:43.749Z,4.81
2019-04-14T01:16:52.760Z,4.8
2019-04-14T01:17:00.420Z,4.8
2019-04-14T01:17:08.975Z,4.8
2019-04-14T01:17:16.273Z,4.8
2019-04-14T01:17:24.385Z,4.79
2019-04-14T01:17:30.892Z,4.79
2019-04-14T01:17:39.514Z,4.79
2019-04-14T01:17:46.861Z,4.78
2019-04-14T01:17:55.644Z,4.78
2019-04-14T01:18:03.508Z,4.78
2019-04-14T01:18:10.791Z,4.78
2019-04-14T01:18:19.648Z,4.78
2019-04-14T01:18:28.322Z,4.77
2019-04-14T01:18:36.423Z,4.77
2019-04-14T01:18:43.688Z,4.77
2019-04-14T01:18:52.326Z,4.76
2019-04-14T01:19:00.427Z,4.77
2019-04-14T01:19:07.627Z,4.77
2019-04-14T01:19:15.516Z,4.77
2019-04-14T01:19:22.770Z,4.76
2019-04-14T01:19:30.930Z,4.77
2019-04-14T01:19:40.135Z,4.75
2019-04-14T01:19:48.397Z,4.75
2019-04-14T01:19:55.621Z,4.75
2019-04-14T01:20:02.123Z,4.75
2019-04-14T01:20:10.821Z,4.74
2019-04-14T01:20:18.879Z,4.74
2019-04-14T01:20:26.111Z,4.74
2019-04-14T01:20:33.849Z,4.74
2019-04-14T01:20:41.379Z,4.73
2019-04-14T01:20:49.898Z,4.72
2019-04-14T01:20:58.593Z,4.73
2019-04-14T01:21:07.428Z,4.72
2019-04-14T01:21:16.024Z,4.72
2019-04-14T01:21:24.168Z,4.71
2019-04-14T01:21:32.776Z,4.7
2019-04-14T01:21:39.957Z,4.71
2019-04-14T01:21:48.100Z,4.7
2019-04-14T01:21:55.341Z,4.7
2019-04-14T01:22:03.093Z,4.7
2019-04-14T01:22:10.265Z,4.7
2019-04-14T01:22:17.049Z,4.69
2019-04-14T01:22:24.825Z,4.69
2019-04-14T01:22:33.459Z,4.69
2019-04-14T01:22:40.883Z,4.68
2019-04-14T01:22:49.539Z,4.68
2019-04-14T01:22:57.416Z,4.68
2019-04-14T01:23:04.875Z,4.67
2019-04-14T01:23:12.958Z,4.66
2019-04-14T01:23:22.255Z,4.66
2019-04-14T01:23:31.183Z,4.66
2019-04-14T01:23:40.982Z,4.65
2019-04-14T01:23:48.764Z,4.64
2019-04-14T01:23:55.265Z,4.65
2019-04-14T01:24:03.906Z,4.64
2019-04-14T01:24:10.359Z,4.63
2019-04-14T01:24:18.550Z,4.64
2019-04-14T01:24:25.742Z,4.63
2019-04-14T01:24:33.543Z,4.62
2019-04-14T01:24:40.370Z,4.61
2019-04-14T01:24:47.556Z,4.62
2019-04-14T01:24:56.044Z,4.62
2019-04-14T01:25:04.231Z,4.61
2019-04-14T01:25:12.841Z,4.62
2019-04-14T01:25:21.425Z,4.61
2019-04-14T01:25:28.880Z,4.61
2019-04-14T01:25:35.401Z,4.6
2019-04-14T01:25:45.220Z,4.59
2019-04-14T01:25:52.777Z,4.59
2019-04-14T01:26:01.818Z,4.59
2019-04-14T01:26:10.069Z,4.59
2019-04-14T01:26:18.818Z,4.59
2019-04-14T01:26:26.734Z,4.58
2019-04-14T01:26:33.893Z,4.58
2019-04-14T01:26:42.066Z,4.57
2019-04-14T01:26:50.647Z,4.57
2019-04-14T01:26:59.521Z,4.57
2019-04-14T01:27:08.825Z,4.57
2019-04-14T01:27:16.756Z,4.57
2019-04-14T01:27:24.190Z,4.56
2019-04-14T01:27:32.690Z,4.57
2019-04-14T01:27:41.351Z,4.57
2019-04-14T01:27:50.266Z,4.56
2019-04-14T01:27:58.188Z,4.56
2019-04-14T01:28:07.506Z,4.56
2019-04-14T01:28:15.732Z,4.56
2019-04-14T01:28:22.900Z,4.55
2019-04-14T01:28:31.504Z,4.55
2019-04-14T01:28:39.678Z,4.55
2019-04-14T01:28:50.322Z,4.55
2019-04-14T01:28:57.549Z,4.55
2019-04-14T01:29:06.523Z,4.55
2019-04-14T01:29:15.080Z,4.55
2019-04-14T01:29:23.320Z,4.55
2019-04-14T01:29:30.447Z,4.55
2019-04-14T01:29:38.453Z,4.55
2019-04-14T01:29:45.617Z,4.54
2019-04-14T01:29:53.767Z,4.55
2019-04-14T01:30:02.552Z,4.54
2019-04-14T01:30:11.162Z,4.55
2019-04-14T01:30:18.352Z,4.55
2019-04-14T01:30:26.977Z,4.55
2019-04-14T01:30:35.078Z,4.55
2019-04-14T01:30:42.297Z,4.55
2019-04-14T01:30:50.820Z,4.55
2019-04-14T01:30:59.007Z,4.55
2019-04-14T01:31:08.357Z,4.54
2019-04-14T01:31:16.186Z,4.55
2019-04-14T01:31:23.043Z,4.55
2019-04-14T01:31:30.328Z,4.54
2019-04-14T01:31:38.214Z,4.56
2019-04-14T01:31:45.419Z,4.55
2019-04-14T01:31:54.332Z,4.55
2019-04-14T01:32:01.138Z,4.55
2019-04-14T01:32:09.554Z,4.55
2019-04-14T01:32:17.575Z,4.56
2019-04-14T01:32:26.105Z,4.55
2019-04-14T01:32:34.994Z,4.55
2019-04-14T01:32:43.554Z,4.55
2019-04-14T01:32:50.787Z,4.55
2019-04-14T01:32:57.251Z,4.55
2019-04-14T01:33:05.396Z,4.55
2019-04-14T01:33:14.683Z,4.55
2019-04-14T01:33:22.862Z,4.55
2019-04-14T01:33:30.090Z,4.54
2019-04-14T01:33:38.632Z,4.54
2019-04-14T01:33:46.953Z,4.53
2019-04-14T01:33:54.093Z,4.53
2019-04-14T01:34:02.666Z,4.53
2019-04-14T01:34:10.776Z,4.54
2019-04-14T01:34:18.014Z,4.54
2019-04-14T01:34:28.022Z,4.53
2019-04-14T01:34:35.530Z,4.53
2019-04-14T01:34:44.129Z,4.54
2019-04-14T01:34:55.806Z,4.53
2019-04-14T01:35:05.207Z,4.53
2019-04-14T01:35:14.552Z,4.53
2019-04-14T01:35:21.061Z,4.53
2019-04-14T01:35:27.822Z,4.53
2019-04-14T01:35:37.778Z,4.52
2019-04-14T01:35:46.684Z,4.53
2019-04-14T01:35:55.989Z,4.53
2019-04-14T01:36:03.933Z,4.52
2019-04-14T01:36:12.749Z,4.53
2019-04-14T01:36:21.977Z,4.53
2019-04-14T01:36:30.567Z,4.53
2019-04-14T01:36:37.403Z,4.53
2019-04-14T01:36:43.921Z,4.53
2019-04-14T01:36:53.919Z,4.53
2019-04-14T01:37:00.787Z,4.54
2019-04-14T01:37:09.375Z,4.54
2019-04-14T01:37:15.853Z,4.54
2019-04-14T01:37:22.524Z,4.54
2019-04-14T01:37:31.072Z,4.53
2019-04-14T01:37:38.027Z,4.54
2019-04-14T01:37:46.402Z,4.54
2019-04-14T01:37:53.664Z,4.53
2019-04-14T01:38:01.505Z,4.53
2019-04-14T01:38:11.042Z,4.53
2019-04-14T01:38:19.725Z,4.54
2019-04-14T01:38:28.295Z,4.54
2019-04-14T01:38:36.362Z,4.55
2019-04-14T01:38:43.501Z,4.54
2019-04-14T01:38:52.021Z,4.54
2019-04-14T01:39:00.302Z,4.54
2019-04-14T01:39:07.552Z,4.54
2019-04-14T01:39:14.039Z,4.55
2019-04-14T01:39:22.155Z,4.56
2019-04-14T01:39:32.761Z,4.55
2019-04-14T01:39:41.351Z,4.54
2019-04-14T01:39:48.874Z,4.55
2019-04-14T01:39:56.669Z,4.54
2019-04-14T01:40:05.201Z,4.55
2019-04-14T01:40:12.777Z,4.55
2019-04-14T01:40:21.392Z,4.55
2019-04-14T01:40:29.973Z,4.54
2019-04-14T01:40:36.679Z,4.55
2019-04-14T01:40:45.248Z,4.55
2019-04-14T01:40:53.850Z,4.55
2019-04-14T01:41:02.108Z,4.56
2019-04-14T01:41:11.327Z,4.55
2019-04-14T01:41:17.871Z,4.54
2019-04-14T01:41:25.945Z,4.54
2019-04-14T01:41:33.232Z,4.55
2019-04-14T01:41:41.523Z,4.55
2019-04-14T01:41:49.859Z,4.55
2019-04-14T01:41:57.511Z,4.55
2019-04-14T01:42:07.732Z,4.56
2019-04-14T01:42:14.535Z,4.56
2019-04-14T01:42:22.285Z,4.56
2019-04-14T01:42:29.629Z,4.55
2019-04-14T01:42:36.318Z,4.55
2019-04-14T01:42:43.945Z,4.55
2019-04-14T01:42:53.431Z,4.55
2019-04-14T01:43:01.584Z,4.56
2019-04-14T01:43:10.935Z,4.56
2019-04-14T01:43:18.886Z,4.55
2019-04-14T01:43:26.352Z,4.55
2019-04-14T01:43:34.874Z,4.55
2019-04-14T01:43:42.793Z,4.56
2019-04-14T01:43:51.629Z,4.55
2019-04-14T01:44:00.232Z,4.55
2019-04-14T01:44:07.548Z,4.55
2019-04-14T01:44:15.525Z,4.54
2019-04-14T01:44:22.792Z,4.56
2019-04-14T01:44:30.686Z,4.54
2019-04-14T01:44:37.834Z,4.55
2019-04-14T01:44:45.959Z,4.55
2019-04-14T01:44:54.536Z,4.55
2019-04-14T01:45:02.143Z,4.55
2019-04-14T01:45:10.709Z,4.55
2019-04-14T01:45:19.294Z,4.54
2019-04-14T01:45:28.222Z,4.55
2019-04-14T01:45:34.621Z,4.55
2019-04-14T01:45:41.042Z,4.55
2019-04-14T01:46:21.531Z,4.53
2019-04-14T01:46:39.835Z,4.54
2019-04-14T01:46:46.365Z,4.54
2019-04-14T01:46:54.924Z,4.53
2019-04-14T01:47:03.009Z,4.53
2019-04-14T01:47:10.197Z,4.53
2019-04-14T01:47:16.679Z,4.53
2019-04-14T01:47:23.467Z,4.53
2019-04-14T01:47:31.351Z,4.52
2019-04-14T01:47:38.458Z,4.52
2019-04-14T01:47:45.298Z,4.53
2019-04-14T01:47:55.212Z,4.53